sensor_id;sensor_type;location;lat;lon;timestamp;temperature;humidity
55083;DHT22;40978;52.850;6.506;2022-12-07T00:01:11;2.70;99.90
55083;DHT22;40978;52.850;6.506;2022-12-07T00:03:38;2.70;99.90
55083;DHT22;40978;52.850;6.506;2022-12-07T00:06:06;2.70;99.90
55083;DHT22;40978;52.850;6.506;2022-12-07T00:08:33;2.60;99.90
55083;DHT22;40978;52.850;6.506;2022-12-07T00:11:03;2.50;99.90
55083;DHT22;40978;52.850;6.506;2022-12-07T00:13:30;2.50;99.90
55083;DHT22;40978;52.850;6.506;2022-12-07T00:15:59;2.40;99.90
55083;DHT22;40978;52.850;6.506;2022-12-07T00:18:25;2.40;99.90
55083;DHT22;40978;52.850;6.506;2022-12-07T00:20:50;2.30;99.90
55083;DHT22;40978;52.850;6.506;2022-12-07T00:23:16;2.30;99.90
55083;DHT22;40978;52.850;6.506;2022-12-07T00:25:42;2.20;99.90
55083;DHT22;40978;52.850;6.506;2022-12-07T00:28:07;2.30;99.90
55083;DHT22;40978;52.850;6.506;2022-12-07T00:30:34;2.20;99.90
55083;DHT22;40978;52.850;6.506;2022-12-07T00:33:01;2.30;99.90
55083;DHT22;40978;52.850;6.506;2022-12-07T00:35:26;2.30;99.90
55083;DHT22;40978;52.850;6.506;2022-12-07T00:37:52;2.40;99.90
55083;DHT22;40978;52.850;6.506;2022-12-07T00:40:18;2.40;99.90
55083;DHT22;40978;52.850;6.506;2022-12-07T00:42:43;2.50;99.90
55083;DHT22;40978;52.850;6.506;2022-12-07T00:45:09;2.50;99.90
55083;DHT22;40978;52.850;6.506;2022-12-07T00:47:35;2.50;99.90
55083;DHT22;40978;52.850;6.506;2022-12-07T00:50:00;2.50;99.90
55083;DHT22;40978;52.850;6.506;2022-12-07T00:52:26;2.50;99.90
55083;DHT22;40978;52.850;6.506;2022-12-07T00:54:52;2.50;99.90
55083;DHT22;40978;52.850;6.506;2022-12-07T00:57:17;2.50;99.90
55083;DHT22;40978;52.850;6.506;2022-12-07T00:59:43;2.50;99.90
55083;DHT22;40978;52.850;6.506;2022-12-07T01:02:09;2.50;99.90
55083;DHT22;40978;52.850;6.506;2022-12-07T01:04:34;2.50;99.90
55083;DHT22;40978;52.850;6.506;2022-12-07T01:07:00;2.50;99.90
55083;DHT22;40978;52.850;6.506;2022-12-07T01:09:26;2.50;99.90
55083;DHT22;40978;52.850;6.506;2022-12-07T01:11:51;2.50;99.90
55083;DHT22;40978;52.850;6.506;2022-12-07T01:14:17;2.60;99.90
55083;DHT22;40978;52.850;6.506;2022-12-07T01:16:43;2.60;99.90
55083;DHT22;40978;52.850;6.506;2022-12-07T01:19:08;2.60;99.90
55083;DHT22;40978;52.850;6.506;2022-12-07T01:21:35;2.60;99.90
55083;DHT22;40978;52.850;6.506;2022-12-07T01:24:04;2.70;99.90
55083;DHT22;40978;52.850;6.506;2022-12-07T01:26:30;2.60;99.90
55083;DHT22;40978;52.850;6.506;2022-12-07T01:28:56;2.70;99.90
55083;DHT22;40978;52.850;6.506;2022-12-07T01:31:25;2.80;99.90
55083;DHT22;40978;52.850;6.506;2022-12-07T01:33:56;2.90;99.90
55083;DHT22;40978;52.850;6.506;2022-12-07T01:36:30;3.10;99.90
55083;DHT22;40978;52.850;6.506;2022-12-07T01:38:59;3.10;99.90
55083;DHT22;40978;52.850;6.506;2022-12-07T01:41:28;3.10;99.90
55083;DHT22;40978;52.850;6.506;2022-12-07T01:44:15;3.20;99.90
55083;DHT22;40978;52.850;6.506;2022-12-07T01:46:43;3.30;99.90
55083;DHT22;40978;52.850;6.506;2022-12-07T01:49:14;3.30;99.90
55083;DHT22;40978;52.850;6.506;2022-12-07T01:51:42;3.30;99.90
55083;DHT22;40978;52.850;6.506;2022-12-07T01:54:11;3.30;99.90
55083;DHT22;40978;52.850;6.506;2022-12-07T01:56:39;3.30;99.90
55083;DHT22;40978;52.850;6.506;2022-12-07T01:59:05;3.30;99.90
55083;DHT22;40978;52.850;6.506;2022-12-07T02:01:31;3.30;99.90
55083;DHT22;40978;52.850;6.506;2022-12-07T02:03:58;3.40;99.90
55083;DHT22;40978;52.850;6.506;2022-12-07T02:06:25;3.30;99.90
55083;DHT22;40978;52.850;6.506;2022-12-07T02:08:52;3.30;99.90
55083;DHT22;40978;52.850;6.506;2022-12-07T02:11:18;3.20;99.90
55083;DHT22;40978;52.850;6.506;2022-12-07T02:13:45;3.10;99.90
55083;DHT22;40978;52.850;6.506;2022-12-07T02:16:25;3.10;99.90
55083;DHT22;40978;52.850;6.506;2022-12-07T02:21:54;3.00;99.90
55083;DHT22;40978;52.850;6.506;2022-12-07T02:24:45;2.90;99.90
55083;DHT22;40978;52.850;6.506;2022-12-07T02:27:38;2.80;99.90
55083;DHT22;40978;52.850;6.506;2022-12-07T02:30:10;2.70;99.90
55083;DHT22;40978;52.850;6.506;2022-12-07T02:38:03;2.50;99.90
55083;DHT22;40978;52.850;6.506;2022-12-07T02:40:57;2.50;99.90
55083;DHT22;40978;52.850;6.506;2022-12-07T02:43:28;2.40;99.90
55083;DHT22;40978;52.850;6.506;2022-12-07T02:46:06;2.40;99.90
55083;DHT22;40978;52.850;6.506;2022-12-07T02:48:34;2.40;99.90
55083;DHT22;40978;52.850;6.506;2022-12-07T02:51:00;2.40;99.90
55083;DHT22;40978;52.850;6.506;2022-12-07T02:55:55;2.50;99.90
55083;DHT22;40978;52.850;6.506;2022-12-07T03:01:17;2.50;99.90
55083;DHT22;40978;52.850;6.506;2022-12-07T03:03:47;2.50;99.90
55083;DHT22;40978;52.850;6.506;2022-12-07T03:06:24;2.60;99.90
55083;DHT22;40978;52.850;6.506;2022-12-07T03:11:55;2.50;99.90
55083;DHT22;40978;52.850;6.506;2022-12-07T03:14:30;2.50;99.90
55083;DHT22;40978;52.850;6.506;2022-12-07T03:19:37;2.50;99.90
55083;DHT22;40978;52.850;6.506;2022-12-07T03:22:10;2.50;99.90
55083;DHT22;40978;52.850;6.506;2022-12-07T03:24:43;2.60;99.90
55083;DHT22;40978;52.850;6.506;2022-12-07T03:27:31;2.60;99.90
55083;DHT22;40978;52.850;6.506;2022-12-07T03:30:06;2.60;99.90
55083;DHT22;40978;52.850;6.506;2022-12-07T03:37:54;2.90;99.90
55083;DHT22;40978;52.850;6.506;2022-12-07T03:41:14;2.90;99.90
55083;DHT22;40978;52.850;6.506;2022-12-07T03:43:18;2.90;99.90
55083;DHT22;40978;52.850;6.506;2022-12-07T03:45:56;2.90;99.90
55083;DHT22;40978;52.850;6.506;2022-12-07T03:48:35;2.90;99.90
55083;DHT22;40978;52.850;6.506;2022-12-07T03:51:26;2.80;99.90
55083;DHT22;40978;52.850;6.506;2022-12-07T03:54:19;2.80;99.90
55083;DHT22;40978;52.850;6.506;2022-12-07T03:56:47;2.80;99.90
55083;DHT22;40978;52.850;6.506;2022-12-07T03:59:15;2.80;99.90
55083;DHT22;40978;52.850;6.506;2022-12-07T04:01:44;2.80;99.90
55083;DHT22;40978;52.850;6.506;2022-12-07T04:04:10;2.80;99.90
55083;DHT22;40978;52.850;6.506;2022-12-07T04:06:36;2.70;99.90
55083;DHT22;40978;52.850;6.506;2022-12-07T04:09:02;2.60;99.90
55083;DHT22;40978;52.850;6.506;2022-12-07T04:11:27;2.60;99.90
55083;DHT22;40978;52.850;6.506;2022-12-07T04:13:53;2.60;99.90
55083;DHT22;40978;52.850;6.506;2022-12-07T04:16:37;2.50;99.90
55083;DHT22;40978;52.850;6.506;2022-12-07T04:19:02;2.50;99.90
55083;DHT22;40978;52.850;6.506;2022-12-07T04:21:28;2.40;99.90
55083;DHT22;40978;52.850;6.506;2022-12-07T04:23:54;2.40;99.90
55083;DHT22;40978;52.850;6.506;2022-12-07T04:26:19;2.30;99.90
55083;DHT22;40978;52.850;6.506;2022-12-07T04:28:45;2.30;99.90
55083;DHT22;40978;52.850;6.506;2022-12-07T04:31:11;2.20;99.90
55083;DHT22;40978;52.850;6.506;2022-12-07T04:33:36;2.20;99.90
55083;DHT22;40978;52.850;6.506;2022-12-07T04:36:02;2.10;99.90
55083;DHT22;40978;52.850;6.506;2022-12-07T04:38:28;2.10;99.90
55083;DHT22;40978;52.850;6.506;2022-12-07T04:40:54;2.00;99.90
55083;DHT22;40978;52.850;6.506;2022-12-07T04:43:19;2.00;99.90
55083;DHT22;40978;52.850;6.506;2022-12-07T04:45:47;2.10;99.90
55083;DHT22;40978;52.850;6.506;2022-12-07T04:48:12;2.10;99.90
55083;DHT22;40978;52.850;6.506;2022-12-07T04:50:38;2.20;99.90
55083;DHT22;40978;52.850;6.506;2022-12-07T04:53:04;2.30;99.90
55083;DHT22;40978;52.850;6.506;2022-12-07T04:55:30;2.40;99.90
55083;DHT22;40978;52.850;6.506;2022-12-07T04:57:55;2.60;99.90
55083;DHT22;40978;52.850;6.506;2022-12-07T05:00:21;2.70;99.90
55083;DHT22;40978;52.850;6.506;2022-12-07T05:02:47;2.80;99.90
55083;DHT22;40978;52.850;6.506;2022-12-07T05:05:12;2.80;99.90
55083;DHT22;40978;52.850;6.506;2022-12-07T05:07:38;2.80;99.90
55083;DHT22;40978;52.850;6.506;2022-12-07T05:10:04;2.70;99.90
55083;DHT22;40978;52.850;6.506;2022-12-07T05:12:30;2.70;99.90
55083;DHT22;40978;52.850;6.506;2022-12-07T05:14:56;2.70;99.90
55083;DHT22;40978;52.850;6.506;2022-12-07T05:17:22;2.60;99.90
55083;DHT22;40978;52.850;6.506;2022-12-07T05:19:47;2.50;99.90
55083;DHT22;40978;52.850;6.506;2022-12-07T05:22:13;2.50;99.90
55083;DHT22;40978;52.850;6.506;2022-12-07T05:24:39;2.40;99.90
55083;DHT22;40978;52.850;6.506;2022-12-07T05:27:05;2.40;99.90
55083;DHT22;40978;52.850;6.506;2022-12-07T05:29:31;2.30;99.90
55083;DHT22;40978;52.850;6.506;2022-12-07T05:31:56;2.30;99.90
55083;DHT22;40978;52.850;6.506;2022-12-07T05:34:22;2.20;99.90
55083;DHT22;40978;52.850;6.506;2022-12-07T05:36:48;2.10;99.90
55083;DHT22;40978;52.850;6.506;2022-12-07T05:39:14;2.00;99.90
55083;DHT22;40978;52.850;6.506;2022-12-07T05:41:40;2.00;99.90
55083;DHT22;40978;52.850;6.506;2022-12-07T05:44:24;2.00;99.90
55083;DHT22;40978;52.850;6.506;2022-12-07T05:46:50;1.90;99.90
55083;DHT22;40978;52.850;6.506;2022-12-07T05:49:15;1.90;99.90
55083;DHT22;40978;52.850;6.506;2022-12-07T05:51:41;1.90;99.90
55083;DHT22;40978;52.850;6.506;2022-12-07T05:54:07;1.90;99.90
55083;DHT22;40978;52.850;6.506;2022-12-07T05:56:33;1.90;99.90
55083;DHT22;40978;52.850;6.506;2022-12-07T05:58:59;1.90;99.90
55083;DHT22;40978;52.850;6.506;2022-12-07T06:01:43;2.00;99.90
55083;DHT22;40978;52.850;6.506;2022-12-07T06:04:08;1.90;99.90
55083;DHT22;40978;52.850;6.506;2022-12-07T06:06:34;1.90;99.90
55083;DHT22;40978;52.850;6.506;2022-12-07T06:09:00;2.00;99.90
55083;DHT22;40978;52.850;6.506;2022-12-07T06:11:26;2.00;99.90
55083;DHT22;40978;52.850;6.506;2022-12-07T06:14:10;2.00;99.90
55083;DHT22;40978;52.850;6.506;2022-12-07T06:16:36;2.00;99.90
55083;DHT22;40978;52.850;6.506;2022-12-07T06:19:01;2.00;99.90
55083;DHT22;40978;52.850;6.506;2022-12-07T06:21:27;2.00;99.90
55083;DHT22;40978;52.850;6.506;2022-12-07T06:23:53;2.00;99.90
55083;DHT22;40978;52.850;6.506;2022-12-07T06:26:19;2.10;99.90
55083;DHT22;40978;52.850;6.506;2022-12-07T06:28:45;2.10;99.90
55083;DHT22;40978;52.850;6.506;2022-12-07T06:31:11;2.20;99.90
55083;DHT22;40978;52.850;6.506;2022-12-07T06:33:36;2.20;99.90
55083;DHT22;40978;52.850;6.506;2022-12-07T06:36:02;2.30;99.90
55083;DHT22;40978;52.850;6.506;2022-12-07T06:38:28;2.40;99.90
55083;DHT22;40978;52.850;6.506;2022-12-07T06:40:54;2.40;99.90
55083;DHT22;40978;52.850;6.506;2022-12-07T06:43:19;2.40;99.90
55083;DHT22;40978;52.850;6.506;2022-12-07T06:45:45;2.50;99.90
55083;DHT22;40978;52.850;6.506;2022-12-07T06:48:11;2.50;99.90
55083;DHT22;40978;52.850;6.506;2022-12-07T06:50:37;2.40;99.90
55083;DHT22;40978;52.850;6.506;2022-12-07T06:53:02;2.40;99.90
55083;DHT22;40978;52.850;6.506;2022-12-07T06:55:28;2.40;99.90
55083;DHT22;40978;52.850;6.506;2022-12-07T06:57:54;2.40;99.90
55083;DHT22;40978;52.850;6.506;2022-12-07T07:00:20;2.40;99.90
55083;DHT22;40978;52.850;6.506;2022-12-07T07:02:45;2.40;99.90
55083;DHT22;40978;52.850;6.506;2022-12-07T07:05:11;2.50;99.90
55083;DHT22;40978;52.850;6.506;2022-12-07T07:07:37;2.50;99.90
55083;DHT22;40978;52.850;6.506;2022-12-07T07:10:03;2.60;99.90
55083;DHT22;40978;52.850;6.506;2022-12-07T07:12:29;2.60;99.90
55083;DHT22;40978;52.850;6.506;2022-12-07T07:14:54;2.70;99.90
55083;DHT22;40978;52.850;6.506;2022-12-07T07:17:20;2.80;99.90
55083;DHT22;40978;52.850;6.506;2022-12-07T07:19:45;2.80;99.90
55083;DHT22;40978;52.850;6.506;2022-12-07T07:22:11;2.90;99.90
55083;DHT22;40978;52.850;6.506;2022-12-07T07:24:37;3.00;99.90
55083;DHT22;40978;52.850;6.506;2022-12-07T07:27:03;3.00;99.90
55083;DHT22;40978;52.850;6.506;2022-12-07T07:29:28;3.00;99.90
55083;DHT22;40978;52.850;6.506;2022-12-07T07:31:54;2.90;99.90
55083;DHT22;40978;52.850;6.506;2022-12-07T07:34:20;2.90;99.90
55083;DHT22;40978;52.850;6.506;2022-12-07T07:36:45;2.90;99.90
55083;DHT22;40978;52.850;6.506;2022-12-07T07:39:11;2.80;99.90
55083;DHT22;40978;52.850;6.506;2022-12-07T07:41:38;2.70;99.90
55083;DHT22;40978;52.850;6.506;2022-12-07T07:44:04;2.70;99.90
55083;DHT22;40978;52.850;6.506;2022-12-07T07:46:29;2.60;99.90
55083;DHT22;40978;52.850;6.506;2022-12-07T07:48:55;2.70;99.90
55083;DHT22;40978;52.850;6.506;2022-12-07T07:51:21;2.70;99.90
55083;DHT22;40978;52.850;6.506;2022-12-07T07:53:47;2.70;99.90
55083;DHT22;40978;52.850;6.506;2022-12-07T07:56:12;2.70;99.90
55083;DHT22;40978;52.850;6.506;2022-12-07T07:58:38;2.80;99.90
55083;DHT22;40978;52.850;6.506;2022-12-07T08:01:08;2.80;99.90
55083;DHT22;40978;52.850;6.506;2022-12-07T08:03:34;2.80;99.90
55083;DHT22;40978;52.850;6.506;2022-12-07T08:06:04;2.90;99.90
55083;DHT22;40978;52.850;6.506;2022-12-07T08:08:30;2.90;99.90
55083;DHT22;40978;52.850;6.506;2022-12-07T08:10:56;2.90;99.90
55083;DHT22;40978;52.850;6.506;2022-12-07T08:13:21;2.90;99.90
55083;DHT22;40978;52.850;6.506;2022-12-07T08:15:47;3.00;99.90
55083;DHT22;40978;52.850;6.506;2022-12-07T08:18:14;3.00;99.90
55083;DHT22;40978;52.850;6.506;2022-12-07T08:20:41;3.00;99.90
55083;DHT22;40978;52.850;6.506;2022-12-07T08:23:08;3.00;99.90
55083;DHT22;40978;52.850;6.506;2022-12-07T08:25:34;3.00;99.90
55083;DHT22;40978;52.850;6.506;2022-12-07T08:28:00;3.00;99.90
55083;DHT22;40978;52.850;6.506;2022-12-07T08:30:27;2.90;99.90
55083;DHT22;40978;52.850;6.506;2022-12-07T08:32:52;2.80;99.90
55083;DHT22;40978;52.850;6.506;2022-12-07T08:35:18;2.80;99.90
55083;DHT22;40978;52.850;6.506;2022-12-07T08:37:44;2.80;99.90
55083;DHT22;40978;52.850;6.506;2022-12-07T08:40:11;2.80;99.90
55083;DHT22;40978;52.850;6.506;2022-12-07T08:42:42;2.80;99.90
55083;DHT22;40978;52.850;6.506;2022-12-07T08:45:12;2.80;99.90
55083;DHT22;40978;52.850;6.506;2022-12-07T08:47:46;2.90;99.90
55083;DHT22;40978;52.850;6.506;2022-12-07T08:50:14;3.10;99.90
55083;DHT22;40978;52.850;6.506;2022-12-07T08:52:40;3.20;99.90
55083;DHT22;40978;52.850;6.506;2022-12-07T08:55:08;3.20;99.90
55083;DHT22;40978;52.850;6.506;2022-12-07T08:57:36;3.20;99.90
55083;DHT22;40978;52.850;6.506;2022-12-07T09:00:03;3.30;99.90
55083;DHT22;40978;52.850;6.506;2022-12-07T09:02:31;3.30;99.90
55083;DHT22;40978;52.850;6.506;2022-12-07T09:04:57;3.40;99.90
55083;DHT22;40978;52.850;6.506;2022-12-07T09:07:23;3.50;99.90
55083;DHT22;40978;52.850;6.506;2022-12-07T09:09:48;3.60;99.90
55083;DHT22;40978;52.850;6.506;2022-12-07T09:12:14;3.60;99.90
55083;DHT22;40978;52.850;6.506;2022-12-07T09:14:40;3.70;99.90
55083;DHT22;40978;52.850;6.506;2022-12-07T09:17:10;3.70;99.90
55083;DHT22;40978;52.850;6.506;2022-12-07T09:19:37;3.70;99.90
55083;DHT22;40978;52.850;6.506;2022-12-07T09:22:04;3.60;99.90
55083;DHT22;40978;52.850;6.506;2022-12-07T09:24:33;3.50;99.90
55083;DHT22;40978;52.850;6.506;2022-12-07T09:26:58;3.50;99.90
55083;DHT22;40978;52.850;6.506;2022-12-07T09:29:24;3.40;99.90
55083;DHT22;40978;52.850;6.506;2022-12-07T09:31:51;3.40;99.90
55083;DHT22;40978;52.850;6.506;2022-12-07T09:34:18;3.40;99.90
55083;DHT22;40978;52.850;6.506;2022-12-07T09:36:44;3.40;99.90
55083;DHT22;40978;52.850;6.506;2022-12-07T09:39:09;3.50;99.90
55083;DHT22;40978;52.850;6.506;2022-12-07T09:41:39;3.60;99.90
55083;DHT22;40978;52.850;6.506;2022-12-07T09:44:26;3.80;99.90
55083;DHT22;40978;52.850;6.506;2022-12-07T09:46:52;4.00;99.90
55083;DHT22;40978;52.850;6.506;2022-12-07T09:49:23;4.10;99.90
55083;DHT22;40978;52.850;6.506;2022-12-07T09:54:35;4.40;99.90
55083;DHT22;40978;52.850;6.506;2022-12-07T09:57:02;4.40;99.90
55083;DHT22;40978;52.850;6.506;2022-12-07T09:59:28;4.50;99.90
55083;DHT22;40978;52.850;6.506;2022-12-07T10:01:54;4.50;99.90
55083;DHT22;40978;52.850;6.506;2022-12-07T10:04:25;4.40;99.90
55083;DHT22;40978;52.850;6.506;2022-12-07T10:06:51;4.40;99.90
55083;DHT22;40978;52.850;6.506;2022-12-07T10:09:20;4.40;99.90
55083;DHT22;40978;52.850;6.506;2022-12-07T10:14:34;4.30;99.90
55083;DHT22;40978;52.850;6.506;2022-12-07T10:17:00;4.30;99.90
55083;DHT22;40978;52.850;6.506;2022-12-07T10:19:32;4.40;99.90
55083;DHT22;40978;52.850;6.506;2022-12-07T10:24:31;4.50;99.90
55083;DHT22;40978;52.850;6.506;2022-12-07T10:26:58;4.50;99.90
55083;DHT22;40978;52.850;6.506;2022-12-07T10:29:34;4.60;99.90
55083;DHT22;40978;52.850;6.506;2022-12-07T10:34:41;4.90;99.90
55083;DHT22;40978;52.850;6.506;2022-12-07T10:39:49;5.00;99.90
55083;DHT22;40978;52.850;6.506;2022-12-07T10:42:17;5.10;99.90
55083;DHT22;40978;52.850;6.506;2022-12-07T10:44:43;5.20;99.90
55083;DHT22;40978;52.850;6.506;2022-12-07T10:47:33;5.40;99.90
55083;DHT22;40978;52.850;6.506;2022-12-07T10:50:12;5.40;99.90
55083;DHT22;40978;52.850;6.506;2022-12-07T10:53:11;5.40;99.90
55083;DHT22;40978;52.850;6.506;2022-12-07T11:01:32;5.40;99.90
55083;DHT22;40978;52.850;6.506;2022-12-07T11:04:18;5.40;99.90
55083;DHT22;40978;52.850;6.506;2022-12-07T11:07:18;5.40;99.90
55083;DHT22;40978;52.850;6.506;2022-12-07T11:20:54;5.60;99.90
55083;DHT22;40978;52.850;6.506;2022-12-07T11:23:56;5.60;99.90
55083;DHT22;40978;52.850;6.506;2022-12-07T11:36:59;5.50;99.90
55083;DHT22;40978;52.850;6.506;2022-12-07T11:39:39;5.50;99.90
55083;DHT22;40978;52.850;6.506;2022-12-07T11:42:18;5.50;99.90
55083;DHT22;40978;52.850;6.506;2022-12-07T11:45:15;5.50;99.90
55083;DHT22;40978;52.850;6.506;2022-12-07T11:48:09;5.50;99.90
55083;DHT22;40978;52.850;6.506;2022-12-07T11:50:42;5.40;99.90
55083;DHT22;40978;52.850;6.506;2022-12-07T11:53:17;5.50;99.90
55083;DHT22;40978;52.850;6.506;2022-12-07T12:03:34;5.40;99.90
55083;DHT22;40978;52.850;6.506;2022-12-07T12:06:02;5.50;99.90
55083;DHT22;40978;52.850;6.506;2022-12-07T12:08:31;5.50;99.90
55083;DHT22;40978;52.850;6.506;2022-12-07T12:11:34;5.50;99.90
55083;DHT22;40978;52.850;6.506;2022-12-07T12:14:32;5.60;99.90
55083;DHT22;40978;52.850;6.506;2022-12-07T12:22:39;5.70;99.90
55083;DHT22;40978;52.850;6.506;2022-12-07T12:25:14;5.80;99.90
55083;DHT22;40978;52.850;6.506;2022-12-07T12:27:46;5.80;99.90
55083;DHT22;40978;52.850;6.506;2022-12-07T12:33:24;5.80;99.90
55083;DHT22;40978;52.850;6.506;2022-12-07T12:47:37;6.00;99.90
55083;DHT22;40978;52.850;6.506;2022-12-07T12:50:15;6.00;99.90
55083;DHT22;40978;52.850;6.506;2022-12-07T12:57:32;6.00;99.90
55083;DHT22;40978;52.850;6.506;2022-12-07T13:00:00;6.00;99.90
55083;DHT22;40978;52.850;6.506;2022-12-07T13:02:39;6.00;99.90
55083;DHT22;40978;52.850;6.506;2022-12-07T13:10:42;5.80;99.90
55083;DHT22;40978;52.850;6.506;2022-12-07T13:15:48;5.50;99.90
55083;DHT22;40978;52.850;6.506;2022-12-07T13:26:31;4.80;99.90
55083;DHT22;40978;52.850;6.506;2022-12-07T13:31:57;4.70;99.90
55083;DHT22;40978;52.850;6.506;2022-12-07T13:37:12;4.80;99.90
55083;DHT22;40978;52.850;6.506;2022-12-07T13:39:55;4.80;99.90
55083;DHT22;40978;52.850;6.506;2022-12-07T13:42:25;4.80;99.90
55083;DHT22;40978;52.850;6.506;2022-12-07T13:44:52;4.70;99.90
55083;DHT22;40978;52.850;6.506;2022-12-07T13:47:40;4.80;99.90
55083;DHT22;40978;52.850;6.506;2022-12-07T13:50:25;4.80;99.90
55083;DHT22;40978;52.850;6.506;2022-12-07T13:52:55;4.80;99.90
55083;DHT22;40978;52.850;6.506;2022-12-07T13:55:21;4.70;99.90
55083;DHT22;40978;52.850;6.506;2022-12-07T13:57:51;4.70;99.90
55083;DHT22;40978;52.850;6.506;2022-12-07T14:00:22;4.70;99.90
55083;DHT22;40978;52.850;6.506;2022-12-07T14:03:28;4.70;99.90
55083;DHT22;40978;52.850;6.506;2022-12-07T14:06:24;4.80;99.90
55083;DHT22;40978;52.850;6.506;2022-12-07T14:09:05;4.70;99.90
55083;DHT22;40978;52.850;6.506;2022-12-07T14:11:31;4.70;99.90
55083;DHT22;40978;52.850;6.506;2022-12-07T14:14:03;4.70;99.90
55083;DHT22;40978;52.850;6.506;2022-12-07T14:16:33;4.80;99.90
55083;DHT22;40978;52.850;6.506;2022-12-07T14:19:03;4.70;99.90
55083;DHT22;40978;52.850;6.506;2022-12-07T14:21:31;4.70;99.90
55083;DHT22;40978;52.850;6.506;2022-12-07T14:24:16;4.70;99.90
55083;DHT22;40978;52.850;6.506;2022-12-07T14:26:48;4.70;99.90
55083;DHT22;40978;52.850;6.506;2022-12-07T14:31:53;4.60;99.90
55083;DHT22;40978;52.850;6.506;2022-12-07T14:34:23;4.60;99.90
55083;DHT22;40978;52.850;6.506;2022-12-07T14:36:49;4.60;99.90
55083;DHT22;40978;52.850;6.506;2022-12-07T14:39:15;4.60;99.90
55083;DHT22;40978;52.850;6.506;2022-12-07T14:41:41;4.60;99.90
55083;DHT22;40978;52.850;6.506;2022-12-07T14:44:22;4.60;99.90
55083;DHT22;40978;52.850;6.506;2022-12-07T14:46:51;4.60;99.90
55083;DHT22;40978;52.850;6.506;2022-12-07T14:49:18;4.60;99.90
55083;DHT22;40978;52.850;6.506;2022-12-07T14:51:46;4.60;99.90
55083;DHT22;40978;52.850;6.506;2022-12-07T14:54:19;4.50;99.90
55083;DHT22;40978;52.850;6.506;2022-12-07T14:56:46;4.50;99.90
55083;DHT22;40978;52.850;6.506;2022-12-07T14:59:16;4.50;99.90
55083;DHT22;40978;52.850;6.506;2022-12-07T15:01:41;4.50;99.90
55083;DHT22;40978;52.850;6.506;2022-12-07T15:04:07;4.40;99.90
55083;DHT22;40978;52.850;6.506;2022-12-07T15:06:34;4.40;99.90
55083;DHT22;40978;52.850;6.506;2022-12-07T15:09:00;4.40;99.90
55083;DHT22;40978;52.850;6.506;2022-12-07T15:11:26;4.30;99.90
55083;DHT22;40978;52.850;6.506;2022-12-07T15:13:51;4.30;99.90
55083;DHT22;40978;52.850;6.506;2022-12-07T15:16:39;4.30;99.90
55083;DHT22;40978;52.850;6.506;2022-12-07T15:19:10;4.40;99.90
55083;DHT22;40978;52.850;6.506;2022-12-07T15:21:36;4.30;99.90
55083;DHT22;40978;52.850;6.506;2022-12-07T15:24:01;4.30;99.90
55083;DHT22;40978;52.850;6.506;2022-12-07T15:26:27;4.30;99.90
55083;DHT22;40978;52.850;6.506;2022-12-07T15:28:53;4.20;99.90
55083;DHT22;40978;52.850;6.506;2022-12-07T15:31:19;4.20;99.90
55083;DHT22;40978;52.850;6.506;2022-12-07T15:33:45;4.20;99.90
55083;DHT22;40978;52.850;6.506;2022-12-07T15:36:20;4.20;99.90
55083;DHT22;40978;52.850;6.506;2022-12-07T15:38:47;4.10;99.90
55083;DHT22;40978;52.850;6.506;2022-12-07T15:41:13;4.10;99.90
55083;DHT22;40978;52.850;6.506;2022-12-07T15:43:38;4.10;99.90
55083;DHT22;40978;52.850;6.506;2022-12-07T15:46:22;4.10;99.90
55083;DHT22;40978;52.850;6.506;2022-12-07T15:48:48;4.10;99.90
55083;DHT22;40978;52.850;6.506;2022-12-07T15:51:14;4.00;99.90
55083;DHT22;40978;52.850;6.506;2022-12-07T15:53:40;4.00;99.90
55083;DHT22;40978;52.850;6.506;2022-12-07T15:56:06;3.90;99.90
55083;DHT22;40978;52.850;6.506;2022-12-07T15:58:33;3.90;99.90
55083;DHT22;40978;52.850;6.506;2022-12-07T16:00:58;3.90;99.90
55083;DHT22;40978;52.850;6.506;2022-12-07T16:03:24;3.90;99.90
55083;DHT22;40978;52.850;6.506;2022-12-07T16:05:50;3.80;99.90
55083;DHT22;40978;52.850;6.506;2022-12-07T16:08:16;3.80;99.90
55083;DHT22;40978;52.850;6.506;2022-12-07T16:10:42;3.90;99.90
55083;DHT22;40978;52.850;6.506;2022-12-07T16:13:09;3.80;99.90
55083;DHT22;40978;52.850;6.506;2022-12-07T16:15:39;3.80;99.90
55083;DHT22;40978;52.850;6.506;2022-12-07T16:18:05;3.90;99.90
55083;DHT22;40978;52.850;6.506;2022-12-07T16:20:30;3.80;99.90
55083;DHT22;40978;52.850;6.506;2022-12-07T16:22:56;4.00;99.90
55083;DHT22;40978;52.850;6.506;2022-12-07T16:25:22;3.90;99.90
55083;DHT22;40978;52.850;6.506;2022-12-07T16:27:47;3.90;99.90
55083;DHT22;40978;52.850;6.506;2022-12-07T16:33:44;3.90;99.90
55083;DHT22;40978;52.850;6.506;2022-12-07T16:36:12;3.90;99.90
55083;DHT22;40978;52.850;6.506;2022-12-07T16:38:39;3.80;99.90
55083;DHT22;40978;52.850;6.506;2022-12-07T16:41:05;3.80;99.90
55083;DHT22;40978;52.850;6.506;2022-12-07T16:43:32;3.90;99.90
55083;DHT22;40978;52.850;6.506;2022-12-07T16:45:58;3.90;99.90
55083;DHT22;40978;52.850;6.506;2022-12-07T16:48:24;3.80;99.90
55083;DHT22;40978;52.850;6.506;2022-12-07T16:50:50;3.80;99.90
55083;DHT22;40978;52.850;6.506;2022-12-07T16:53:15;3.90;99.90
55083;DHT22;40978;52.850;6.506;2022-12-07T16:55:43;3.80;99.90
55083;DHT22;40978;52.850;6.506;2022-12-07T16:58:11;3.80;99.90
55083;DHT22;40978;52.850;6.506;2022-12-07T17:00:38;3.80;99.90
55083;DHT22;40978;52.850;6.506;2022-12-07T17:03:04;3.70;99.90
55083;DHT22;40978;52.850;6.506;2022-12-07T17:05:30;3.70;99.90
55083;DHT22;40978;52.850;6.506;2022-12-07T17:07:56;3.70;99.90
55083;DHT22;40978;52.850;6.506;2022-12-07T17:10:23;3.60;99.90
55083;DHT22;40978;52.850;6.506;2022-12-07T17:12:49;3.60;99.90
55083;DHT22;40978;52.850;6.506;2022-12-07T17:15:16;3.60;99.90
55083;DHT22;40978;52.850;6.506;2022-12-07T17:17:53;3.60;99.90
55083;DHT22;40978;52.850;6.506;2022-12-07T17:20:20;3.50;99.90
55083;DHT22;40978;52.850;6.506;2022-12-07T17:22:46;3.50;99.90
55083;DHT22;40978;52.850;6.506;2022-12-07T17:25:12;3.50;99.90
55083;DHT22;40978;52.850;6.506;2022-12-07T17:27:38;3.50;99.90
55083;DHT22;40978;52.850;6.506;2022-12-07T17:30:05;3.40;99.90
55083;DHT22;40978;52.850;6.506;2022-12-07T17:32:31;3.40;99.90
55083;DHT22;40978;52.850;6.506;2022-12-07T17:34:57;3.30;99.90
55083;DHT22;40978;52.850;6.506;2022-12-07T17:37:23;3.30;99.90
55083;DHT22;40978;52.850;6.506;2022-12-07T17:39:49;3.20;99.90
55083;DHT22;40978;52.850;6.506;2022-12-07T17:42:15;3.10;99.90
55083;DHT22;40978;52.850;6.506;2022-12-07T17:44:59;3.10;99.90
55083;DHT22;40978;52.850;6.506;2022-12-07T17:47:25;3.10;99.90
55083;DHT22;40978;52.850;6.506;2022-12-07T17:49:50;3.10;99.90
55083;DHT22;40978;52.850;6.506;2022-12-07T17:52:17;3.10;99.90
55083;DHT22;40978;52.850;6.506;2022-12-07T17:55:01;3.10;99.90
55083;DHT22;40978;52.850;6.506;2022-12-07T17:57:26;3.20;99.90
55083;DHT22;40978;52.850;6.506;2022-12-07T17:59:52;3.20;99.90
55083;DHT22;40978;52.850;6.506;2022-12-07T18:02:20;3.10;99.90
55083;DHT22;40978;52.850;6.506;2022-12-07T18:04:45;3.10;99.90